This is the latest recevied weather packets stored in our database for station/object 9W2CEW-1. If no packets are shown the sender has not sent any weather packets the latest 10 day(s).
| Time | Temp. | Humidity | Pressure | Rain* | Wind** | Luminosity | Snow |
|---|---|---|---|---|---|---|---|
| 1777494267 | 28.89° C | 89% | 1003.4 hPa | - | - | - | - |
| 1777493429 | 29.44° C | 86% | 1003.6 hPa | - | - | - | - |
| 1777493367 | 29.44° C | 86% | 1003.6 hPa | - | - | - | - |
| 1777492467 | 28.89° C | 87% | 1003.9 hPa | - | - | - | - |
| 1777491567 | 29.44° C | 87% | 1004 hPa | - | - | - | - |
| 1777490764 | 28.89° C | 87% | 1004.2 hPa | - | - | - | - |
| 1777490668 | 28.89° C | 87% | 1004.2 hPa | - | - | - | - |
| 1777489768 | 28.33° C | 91% | 1004.4 hPa | - | - | - | - |
| 1777488868 | 28.33° C | 93% | 1004.4 hPa | - | - | - | - |
| 1777487968 | 28.33° C | 91% | 1004.6 hPa | - | - | - | - |
| 1777487068 | 28.33° C | 90% | 1004.6 hPa | - | - | - | - |
| 1777486210 | 28.89° C | 88% | 1004.6 hPa | - | - | - | - |
| 1777486168 | 28.89° C | 88% | 1004.6 hPa | - | - | - | - |
| 1777485268 | 28.33° C | 94% | 1004.8 hPa | - | - | - | - |
| 1777484413 | 27.78° C | 99% | 1005.1 hPa | - | - | - | - |
| 1777484368 | 27.78° C | 99% | 1005.1 hPa | - | - | - | - |
| 1777483468 | 26.67° C | 100% | 1005 hPa | - | - | - | - |
| 1777482567 | 28.33° C | 93% | 1005.1 hPa | - | - | - | - |
| 1777481807 | 28.89° C | 89% | 1005.2 hPa | - | - | - | - |
| 1777481667 | 28.89° C | 89% | 1005.2 hPa | - | - | - | - |
| 1777480768 | 27.78° C | 94% | 1005.3 hPa | - | - | - | - |
| 1777479867 | 30° C | 78% | 1005 hPa | - | - | - | - |
| 1777478967 | 30° C | 80% | 1005.2 hPa | - | - | - | - |
| 1777478067 | 29.44° C | 83% | 1005 hPa | - | - | - | - |
| 1777477167 | 30° C | 79% | 1005.2 hPa | - | - | - | - |
* Rain since midnight (hover to see other rain measurements)
** Current wind speed in m/s (hover to see current wind gust speed)